Time;durP1;ratioP1;P1;durP2;ratioP2;P2;SDS_P1;SDS_P2;PMS_P1;PMS_P2;Temp;Humidity;BMP_temperature;BMP_pressure;BME280_temperature;BME280_humidity;BME280_pressure;Samples;Min_cycle;Max_cycle;Signal;HPM_P1;HPM_P2
2022/08/30 00:01:29;;;;;;;8.80;4.70;;;16.40;99.90;;;;;;5014890;28;20136;-72
2022/08/30 00:03:57;;;;;;;7.60;4.37;;;16.30;99.90;;;;;;5015323;28;20097;-72
2022/08/30 00:16:44;;;;;;;10.87;4.17;;;16.20;99.90;;;;;;5208288;23;20135;-70
2022/08/30 00:19:09;;;;;;;8.07;4.40;;;16.20;99.90;;;;;;5229678;22;20123;-72
2022/08/30 00:21:35;;;;;;;6.10;4.17;;;16.20;99.90;;;;;;4978757;28;20049;-72
2022/08/30 00:24:01;;;;;;;10.03;4.17;;;16.20;99.90;;;;;;4996938;28;20490;-71
2022/08/30 00:26:27;;;;;;;9.17;4.17;;;16.20;99.90;;;;;;4997099;28;20498;-72
2022/08/30 00:28:52;;;;;;;6.40;3.93;;;16.20;99.90;;;;;;4996581;28;20068;-71
2022/08/30 00:31:18;;;;;;;7.70;4.40;;;16.20;99.90;;;;;;4996563;28;20390;-71
2022/08/30 00:33:44;;;;;;;7.13;4.20;;;16.20;99.90;;;;;;4997271;28;20212;-72
2022/08/30 00:36:09;;;;;;;8.07;4.47;;;16.20;99.90;;;;;;4996924;28;20462;-71
2022/08/30 00:38:35;;;;;;;7.27;4.20;;;16.20;99.90;;;;;;4996708;28;20042;-72
2022/08/30 00:41:01;;;;;;;6.73;4.20;;;16.20;99.90;;;;;;4995201;28;20042;-71
2022/08/30 00:43:30;;;;;;;9.03;4.43;;;16.20;99.90;;;;;;4996847;28;20367;-71
2022/08/30 00:45:56;;;;;;;10.53;5.13;;;16.20;99.90;;;;;;4996047;28;20111;-71
2022/08/30 00:48:22;;;;;;;10.87;4.67;;;16.20;99.90;;;;;;4996228;28;20050;-71
2022/08/30 00:50:53;;;;;;;7.97;4.67;;;16.20;99.90;;;;;;4996186;28;20142;-72
2022/08/30 00:53:25;;;;;;;9.83;4.93;;;16.20;99.90;;;;;;4996970;28;20386;-72
2022/08/30 00:55:52;;;;;;;6.50;3.93;;;16.20;99.90;;;;;;4996131;28;20050;-72
2022/08/30 00:58:21;;;;;;;8.37;4.63;;;16.20;99.90;;;;;;4996217;28;20052;-71
2022/08/30 01:00:52;;;;;;;8.33;4.47;;;16.20;99.90;;;;;;4995916;28;20046;-71
2022/08/30 01:03:17;;;;;;;9.20;4.27;;;16.10;99.90;;;;;;4996026;28;20081;-71
2022/08/30 01:05:44;;;;;;;6.97;4.67;;;16.20;99.90;;;;;;4995952;28;20474;-71
2022/08/30 01:08:10;;;;;;;9.63;5.00;;;16.10;99.90;;;;;;4996680;28;20344;-71
2022/08/30 01:10:36;;;;;;;7.30;4.73;;;16.20;99.90;;;;;;4995097;28;20057;-72
2022/08/30 01:13:02;;;;;;;7.47;3.80;;;16.20;99.90;;;;;;4995784;28;20057;-71
2022/08/30 01:15:30;;;;;;;7.03;4.40;;;16.30;99.90;;;;;;4995798;28;20109;-71
2022/08/30 01:17:55;;;;;;;6.73;3.70;;;16.30;99.90;;;;;;4995586;28;20501;-71
2022/08/30 01:20:42;;;;;;;7.77;4.03;;;16.20;99.90;;;;;;4996144;28;20058;-71
2022/08/30 01:23:12;;;;;;;7.63;3.73;;;16.20;99.90;;;;;;4996390;28;20061;-71
2022/08/30 01:25:41;;;;;;;10.00;3.83;;;16.20;99.90;;;;;;4996088;28;20138;-72
2022/08/30 01:28:12;;;;;;;8.83;4.07;;;16.20;99.90;;;;;;4995592;28;20057;-71
2022/08/30 01:30:39;;;;;;;8.50;4.20;;;16.20;99.90;;;;;;4995461;28;20140;-71
2022/08/30 01:33:05;;;;;;;5.97;3.80;;;16.20;99.90;;;;;;4995431;28;20049;-71
2022/08/30 01:35:51;;;;;;;8.10;3.97;;;16.20;99.90;;;;;;4995298;28;20085;-71
2022/08/30 01:38:18;;;;;;;6.77;3.97;;;16.20;99.90;;;;;;4995342;28;20061;-71
2022/08/30 01:40:44;;;;;;;7.63;3.70;;;16.20;99.90;;;;;;4995201;28;20406;-72
2022/08/30 01:43:12;;;;;;;6.70;3.93;;;16.20;99.90;;;;;;4995216;28;20133;-71
2022/08/30 01:45:38;;;;;;;9.50;4.37;;;16.20;99.90;;;;;;4995130;28;20058;-72
2022/08/30 01:48:04;;;;;;;8.33;3.23;;;16.10;99.90;;;;;;4995338;28;20038;-71
2022/08/30 01:50:30;;;;;;;6.03;3.50;;;16.20;99.90;;;;;;4995316;28;20446;-71
2022/08/30 01:52:55;;;;;;;8.93;4.10;;;16.10;99.90;;;;;;4995295;28;20050;-71
2022/08/30 01:55:22;;;;;;;7.43;3.23;;;16.10;99.90;;;;;;4994040;28;20053;-71
2022/08/30 01:57:48;;;;;;;6.10;3.87;;;16.10;99.90;;;;;;4995873;28;20128;-71
2022/08/30 02:00:16;;;;;;;5.47;3.20;;;16.10;99.90;;;;;;4994876;28;20074;-71
2022/08/30 02:02:42;;;;;;;6.13;3.27;;;16.10;99.90;;;;;;4994802;28;20052;-71
2022/08/30 02:05:09;;;;;;;7.30;3.47;;;16.10;99.90;;;;;;4994807;28;20054;-71
2022/08/30 02:07:35;;;;;;;7.43;3.50;;;16.10;99.90;;;;;;4995025;28;20042;-71
2022/08/30 02:10:00;;;;;;;7.07;3.57;;;16.00;99.90;;;;;;4995226;28;20077;-71
2022/08/30 02:12:27;;;;;;;5.53;3.37;;;16.10;99.90;;;;;;4995211;28;20057;-71
2022/08/30 02:14:53;;;;;;;12.13;3.43;;;16.00;99.90;;;;;;4994596;28;20132;-71
2022/08/30 02:17:18;;;;;;;5.43;3.03;;;16.00;99.90;;;;;;4994551;28;20177;-70
2022/08/30 02:19:44;;;;;;;8.97;3.37;;;15.90;99.90;;;;;;4994186;28;20160;-70
2022/08/30 02:22:10;;;;;;;7.73;3.60;;;15.90;99.90;;;;;;4994335;28;20042;-70
2022/08/30 02:24:36;;;;;;;6.37;3.60;;;15.90;99.90;;;;;;4994400;28;20072;-69
2022/08/30 02:27:03;;;;;;;6.83;3.47;;;15.90;99.90;;;;;;4994076;28;20502;-69
2022/08/30 02:29:29;;;;;;;7.83;3.40;;;15.90;99.90;;;;;;4994038;28;20498;-70
2022/08/30 02:31:54;;;;;;;7.00;3.53;;;15.80;99.90;;;;;;4994345;28;20141;-70
2022/08/30 02:34:21;;;;;;;6.57;3.73;;;15.80;99.90;;;;;;4994368;28;20142;-69
2022/08/30 02:36:47;;;;;;;6.93;3.70;;;15.80;99.90;;;;;;4994180;28;20132;-70
2022/08/30 02:39:13;;;;;;;8.57;3.27;;;15.70;99.90;;;;;;4994297;28;20360;-70
2022/08/30 02:41:40;;;;;;;8.37;3.20;;;15.70;99.90;;;;;;4994774;28;20426;-70
2022/08/30 02:44:06;;;;;;;7.57;3.57;;;15.70;99.90;;;;;;4994931;28;20218;-70
2022/08/30 02:46:33;;;;;;;6.67;3.53;;;15.60;99.90;;;;;;4993872;28;20671;-69
2022/08/30 02:48:59;;;;;;;9.67;3.70;;;15.60;99.90;;;;;;4993815;28;20514;-69
2022/08/30 02:51:24;;;;;;;6.77;3.37;;;15.60;99.90;;;;;;4994075;28;20046;-69
2022/08/30 02:53:51;;;;;;;7.47;4.00;;;15.60;99.90;;;;;;4993745;28;20042;-70
2022/08/30 02:56:16;;;;;;;6.60;3.83;;;15.60;99.90;;;;;;4994503;28;20495;-69
2022/08/30 02:58:43;;;;;;;6.40;3.87;;;15.60;99.90;;;;;;4994511;28;20088;-70
2022/08/30 03:01:12;;;;;;;7.23;4.13;;;15.60;99.90;;;;;;4994027;28;20050;-69
2022/08/30 03:03:39;;;;;;;6.33;3.90;;;15.50;99.90;;;;;;4994504;28;20442;-70
2022/08/30 03:06:05;;;;;;;7.37;4.23;;;15.50;99.90;;;;;;4994001;28;20125;-69
2022/08/30 03:08:31;;;;;;;7.73;3.90;;;15.60;99.90;;;;;;4993935;28;20050;-69
2022/08/30 03:10:58;;;;;;;8.87;4.27;;;15.50;99.90;;;;;;4994306;28;20050;-69
2022/08/30 03:13:24;;;;;;;7.80;4.07;;;15.50;99.90;;;;;;4993881;28;20089;-69
2022/08/30 03:15:50;;;;;;;9.30;4.23;;;15.50;99.90;;;;;;4993840;28;20329;-69
2022/08/30 03:18:18;;;;;;;6.37;3.60;;;15.50;99.90;;;;;;4993875;28;20038;-69
2022/08/30 03:20:44;;;;;;;6.17;4.20;;;15.50;99.90;;;;;;4992172;28;20650;-69
2022/08/30 03:23:10;;;;;;;6.83;3.83;;;15.50;99.90;;;;;;4992549;28;20431;-69
2022/08/30 03:25:36;;;;;;;7.57;3.57;;;15.50;99.90;;;;;;4993864;28;20201;-70
2022/08/30 03:28:02;;;;;;;10.83;3.90;;;15.50;99.90;;;;;;4994052;28;20113;-70
2022/08/30 03:30:27;;;;;;;7.20;4.07;;;15.50;99.90;;;;;;4994256;28;20133;-69
2022/08/30 03:32:53;;;;;;;7.00;4.00;;;15.40;99.90;;;;;;4994122;28;20156;-70
2022/08/30 03:35:19;;;;;;;6.30;4.40;;;15.40;99.90;;;;;;4997872;28;20054;-70
2022/08/30 03:37:45;;;;;;;7.57;4.50;;;15.30;99.90;;;;;;4997484;28;20470;-69
2022/08/30 03:40:13;;;;;;;7.07;4.03;;;15.30;99.90;;;;;;4997540;28;20398;-70
2022/08/30 03:42:40;;;;;;;7.47;3.80;;;15.20;99.90;;;;;;4997444;28;20335;-71
2022/08/30 03:45:06;;;;;;;7.70;4.47;;;15.30;99.90;;;;;;4997410;28;20285;-71
2022/08/30 03:47:32;;;;;;;6.53;4.47;;;15.20;99.90;;;;;;4997385;28;20273;-71
2022/08/30 03:49:58;;;;;;;7.80;4.53;;;15.20;99.90;;;;;;4997251;28;20285;-71
2022/08/30 03:52:24;;;;;;;9.43;4.63;;;15.20;99.90;;;;;;4997287;28;20046;-71
2022/08/30 03:54:50;;;;;;;7.60;4.07;;;15.20;99.90;;;;;;4997224;28;20364;-71
2022/08/30 03:57:16;;;;;;;8.33;4.07;;;15.20;99.90;;;;;;4997144;28;20050;-71
2022/08/30 03:59:41;;;;;;;9.90;4.07;;;15.20;99.90;;;;;;4997144;28;20483;-71
2022/08/30 04:02:07;;;;;;;6.53;4.43;;;15.10;99.90;;;;;;4997106;28;20549;-71
2022/08/30 04:04:33;;;;;;;7.57;4.40;;;15.20;99.90;;;;;;4997043;28;20069;-71
2022/08/30 04:06:59;;;;;;;8.93;4.93;;;15.10;99.90;;;;;;4997031;28;20107;-71
2022/08/30 04:09:25;;;;;;;6.70;4.20;;;15.10;99.90;;;;;;4997187;28;20137;-71
2022/08/30 04:11:50;;;;;;;9.00;4.80;;;15.00;99.90;;;;;;4995701;28;20064;-71
2022/08/30 04:14:17;;;;;;;7.50;4.70;;;15.00;99.90;;;;;;4996891;28;20050;-71
2022/08/30 04:16:43;;;;;;;7.03;4.50;;;15.00;99.90;;;;;;4996784;28;20046;-71
2022/08/30 04:19:09;;;;;;;7.10;4.83;;;15.00;99.90;;;;;;4997410;28;20297;-71
2022/08/30 04:21:35;;;;;;;7.73;4.90;;;15.00;99.90;;;;;;4997247;28;20666;-71
2022/08/30 04:24:02;;;;;;;6.93;4.77;;;15.00;99.90;;;;;;4996704;28;20104;-71
2022/08/30 04:26:27;;;;;;;8.03;5.23;;;15.00;99.90;;;;;;4997199;28;20285;-71
2022/08/30 04:28:54;;;;;;;7.30;4.50;;;15.00;99.90;;;;;;4997372;28;20294;-71
2022/08/30 04:31:20;;;;;;;8.57;5.10;;;15.00;99.90;;;;;;4996512;28;20046;-71
2022/08/30 04:33:46;;;;;;;7.50;4.77;;;14.90;99.90;;;;;;4995369;28;20281;-71
2022/08/30 04:36:13;;;;;;;9.67;4.90;;;14.90;99.90;;;;;;4996145;28;20304;-71
2022/08/30 04:38:40;;;;;;;8.47;4.63;;;14.90;99.90;;;;;;4996404;28;20046;-71
2022/08/30 04:41:11;;;;;;;11.23;5.13;;;;;;;;;;4995116;28;20278;-71
2022/08/30 04:43:38;;;;;;;7.63;4.63;;;14.80;99.90;;;;;;4996871;28;20286;-71
2022/08/30 04:46:06;;;;;;;7.90;4.70;;;14.80;99.90;;;;;;4996284;28;20308;-71
2022/08/30 04:48:31;;;;;;;7.47;5.03;;;14.70;99.90;;;;;;4996497;28;20273;-71
2022/08/30 04:50:57;;;;;;;10.00;5.20;;;14.70;99.90;;;;;;4994943;28;20642;-71
2022/08/30 04:53:23;;;;;;;8.80;5.03;;;14.70;99.90;;;;;;4996190;28;20054;-71
2022/08/30 04:55:48;;;;;;;9.37;5.20;;;14.70;99.90;;;;;;4996447;28;20042;-71
2022/08/30 04:58:14;;;;;;;11.83;5.03;;;14.70;99.90;;;;;;4996510;28;20058;-71
2022/08/30 05:00:43;;;;;;;8.97;4.63;;;14.70;99.90;;;;;;4996301;28;20050;-71
2022/08/30 05:03:08;;;;;;;10.00;4.73;;;14.80;99.90;;;;;;4996718;28;20132;-71
2022/08/30 05:05:40;;;;;;;8.83;4.90;;;14.80;99.90;;;;;;4995921;28;20786;-71
2022/08/30 05:08:17;;;;;;;5.97;4.47;;;14.70;99.90;;;;;;4996454;28;20082;-71
2022/08/30 05:10:46;;;;;;;8.77;4.57;;;14.80;99.90;;;;;;4996734;28;20357;-71
2022/08/30 05:13:12;;;;;;;8.83;4.37;;;14.80;99.90;;;;;;4995761;28;20290;-71
2022/08/30 05:15:39;;;;;;;7.17;4.07;;;14.70;99.90;;;;;;4995727;28;20285;-71
2022/08/30 05:18:06;;;;;;;12.03;4.70;;;14.70;99.90;;;;;;4995614;28;20384;-71
2022/08/30 05:20:33;;;;;;;6.30;4.50;;;14.70;99.90;;;;;;4995208;28;20305;-71
2022/08/30 05:23:00;;;;;;;8.40;4.43;;;14.70;99.90;;;;;;4996101;28;20295;-71
2022/08/30 05:25:28;;;;;;;7.97;4.00;;;14.80;99.90;;;;;;4995528;28;20351;-71
2022/08/30 05:27:54;;;;;;;9.37;5.27;;;14.80;99.90;;;;;;4995465;28;20344;-71
2022/08/30 05:30:22;;;;;;;9.20;4.20;;;14.80;99.90;;;;;;4995396;28;20289;-71
2022/08/30 05:32:48;;;;;;;9.07;4.50;;;14.80;99.90;;;;;;4995940;28;20065;-71
2022/08/30 05:35:15;;;;;;;9.53;4.10;;;14.90;99.90;;;;;;4995374;28;20384;-71
2022/08/30 05:37:41;;;;;;;6.57;4.50;;;14.90;99.90;;;;;;4995745;28;20042;-71
2022/08/30 05:40:07;;;;;;;7.17;4.00;;;14.90;99.90;;;;;;4995284;28;20352;-71
2022/08/30 05:42:34;;;;;;;7.47;3.63;;;14.90;99.90;;;;;;4995189;28;20134;-71
2022/08/30 05:45:02;;;;;;;8.17;4.40;;;14.90;99.90;;;;;;4995423;28;20285;-71
2022/08/30 05:47:27;;;;;;;7.67;4.17;;;14.90;99.90;;;;;;4995134;28;20281;-71
2022/08/30 05:49:53;;;;;;;8.63;3.63;;;14.90;99.90;;;;;;4994750;28;20650;-71
2022/08/30 05:52:19;;;;;;;6.60;3.80;;;15.00;99.90;;;;;;4995047;28;20043;-71
2022/08/30 05:54:50;;;;;;;9.53;3.90;;;15.00;99.90;;;;;;4996065;28;20054;-71
2022/08/30 05:57:16;;;;;;;13.43;4.30;;;15.00;99.90;;;;;;4994972;28;20051;-71
2022/08/30 05:59:42;;;;;;;11.67;4.20;;;15.10;99.90;;;;;;4995191;28;20361;-71
2022/08/30 06:02:08;;;;;;;8.30;4.00;;;15.10;99.90;;;;;;4994930;28;20120;-71
2022/08/30 06:04:35;;;;;;;8.47;3.87;;;15.20;99.90;;;;;;4994824;28;20730;-71
2022/08/30 06:07:01;;;;;;;9.60;4.00;;;15.30;99.90;;;;;;4994860;28;20104;-71
2022/08/30 06:09:27;;;;;;;10.07;4.40;;;15.30;99.90;;;;;;4995249;28;20289;-71
2022/08/30 06:11:53;;;;;;;7.13;3.80;;;15.40;99.90;;;;;;4995015;28;20046;-71
2022/08/30 06:14:19;;;;;;;8.37;3.87;;;15.60;99.90;;;;;;4995150;28;20289;-71
2022/08/30 06:16:46;;;;;;;8.53;3.60;;;16.70;99.90;;;;;;4994586;28;20647;-71
2022/08/30 06:19:13;;;;;;;7.53;3.20;;;18.10;99.90;;;;;;4994246;28;20058;-71
2022/08/30 06:21:40;;;;;;;8.90;3.23;;;19.50;99.90;;;;;;4994527;28;20104;-72
2022/08/30 06:24:08;;;;;;;9.97;3.07;;;20.70;99.90;;;;;;4995037;28;20057;-71
2022/08/30 06:26:40;;;;;;;4.80;2.70;;;21.70;99.90;;;;;;4994481;28;20104;-72
2022/08/30 06:29:07;;;;;;;8.27;2.80;;;22.60;99.90;;;;;;4994464;28;20054;-72
2022/08/30 06:31:33;;;;;;;4.83;2.53;;;;;;;;;;4994393;28;20046;-71
2022/08/30 06:33:59;;;;;;;5.13;2.17;;;24.10;99.90;;;;;;4994311;28;20050;-72
2022/08/30 06:36:25;;;;;;;10.13;2.90;;;;;;;;;;4995016;28;20052;-72
2022/08/30 06:38:53;;;;;;;5.67;2.70;;;24.60;99.90;;;;;;4994227;28;20479;-72
2022/08/30 06:41:21;;;;;;;7.60;2.57;;;25.00;94.40;;;;;;4994994;28;20046;-72
2022/08/30 06:43:47;;;;;;;8.00;2.70;;;25.30;88.60;;;;;;4994028;28;20077;-72
2022/08/30 06:46:18;;;;;;;5.80;2.50;;;25.50;86.40;;;;;;4994142;28;20162;-72
2022/08/30 06:48:44;;;;;;;6.27;2.60;;;25.90;68.60;;;;;;4994501;28;20072;-70
2022/08/30 06:51:10;;;;;;;5.50;2.40;;;;;;;;;;4994367;28;20502;-70
2022/08/30 06:53:36;;;;;;;4.77;2.10;;;26.80;70.60;;;;;;4993170;28;20475;-70
2022/08/30 06:56:07;;;;;;;5.03;2.33;;;27.40;78.00;;;;;;4994207;28;20042;-70
2022/08/30 06:58:34;;;;;;;6.63;2.50;;;27.50;67.10;;;;;;4993759;28;20482;-70
2022/08/30 07:01:00;;;;;;;6.37;2.10;;;27.10;64.50;;;;;;4994089;28;20401;-70
2022/08/30 07:03:26;;;;;;;5.57;2.30;;;27.10;63.40;;;;;;4994053;28;20050;-70
2022/08/30 07:05:53;;;;;;;6.17;2.20;;;27.30;62.60;;;;;;4994039;28;20046;-71
2022/08/30 07:08:19;;;;;;;5.40;2.50;;;;;;;;;;4994751;28;20487;-70
2022/08/30 07:10:46;;;;;;;5.77;2.20;;;;;;;;;;4998600;28;20057;-70
2022/08/30 07:13:12;;;;;;;5.20;2.17;;;;;;;;;;4998025;28;20054;-70
2022/08/30 07:15:43;;;;;;;4.27;2.13;;;27.60;79.40;;;;;;4997314;28;20057;-70
2022/08/30 07:20:55;;;;;;;4.70;2.30;;;28.40;55.60;;;;;;4998233;28;20050;-69
2022/08/30 07:23:21;;;;;;;7.33;2.50;;;28.50;55.80;;;;;;4998629;28;20050;-69
2022/08/30 07:25:47;;;;;;;5.67;2.20;;;28.70;55.30;;;;;;4997512;28;20508;-70
2022/08/30 07:28:13;;;;;;;5.65;2.53;;;;;;;;;;4997757;28;20129;-70
2022/08/30 07:30:40;;;;;;;6.67;2.60;;;;;;;;;;4998186;28;20138;-70
2022/08/30 07:33:06;;;;;;;4.60;1.95;;;;;;;;;;4997633;28;20049;-70
2022/08/30 07:35:33;;;;;;;4.97;2.50;;;;;;;;;;4997348;28;20050;-71
2022/08/30 07:37:59;;;;;;;6.78;2.47;;;28.90;88.30;;;;;;4998372;28;20089;-73
2022/08/30 07:40:25;;;;;;;5.03;2.30;;;28.30;51.40;;;;;;4997187;28;20594;-72
2022/08/30 07:42:51;;;;;;;6.00;2.40;;;28.50;52.20;;;;;;4997497;28;20046;-72
2022/08/30 07:45:17;;;;;;;5.30;2.30;;;28.60;52.30;;;;;;4997380;28;20050;-72
2022/08/30 07:47:43;;;;;;;6.45;2.35;;;29.00;51.40;;;;;;4997459;28;20138;-71
2022/08/30 07:50:10;;;;;;;5.78;2.35;;;28.60;50.00;;;;;;4997391;28;20050;-72
2022/08/30 07:52:36;;;;;;;5.00;2.40;;;;;;;;;;4996812;28;20352;-72
2022/08/30 07:55:02;;;;;;;8.55;2.20;;;;;;;;;;4997245;28;20049;-72
2022/08/30 07:57:33;;;;;;;6.22;2.10;;;27.40;49.50;;;;;;4995910;28;20100;-72
2022/08/30 07:59:59;;;;;;;5.72;1.70;;;;;;;;;;4997977;28;20046;-72
2022/08/30 08:02:26;;;;;;;4.30;2.00;;;;;;;;;;4997090;28;20054;-72
2022/08/30 08:04:52;;;;;;;6.77;2.10;;;24.50;84.90;;;;;;4997066;28;20499;-73
2022/08/30 08:07:18;;;;;;;4.00;1.90;;;24.40;57.20;;;;;;4997064;28;20046;-73
2022/08/30 08:09:44;;;;;;;3.97;2.00;;;23.90;58.80;;;;;;4997267;28;20042;-72
2022/08/30 08:12:10;;;;;;;4.47;2.23;;;23.60;60.40;;;;;;4997008;28;20057;-73
2022/08/30 08:14:36;;;;;;;7.23;2.00;;;23.30;61.90;;;;;;4998055;28;20137;-73
2022/08/30 08:17:03;;;;;;;6.07;2.00;;;22.70;63.90;;;;;;4996837;28;20038;-72
2022/08/30 08:19:29;;;;;;;5.27;1.80;;;22.70;64.60;;;;;;4996294;28;20513;-72
2022/08/30 08:21:58;;;;;;;6.57;2.40;;;22.60;68.00;;;;;;4996806;28;20058;-74
2022/08/30 08:24:25;;;;;;;6.53;1.90;;;22.40;69.50;;;;;;4995536;28;20097;-74
2022/08/30 08:26:51;;;;;;;5.73;2.00;;;22.30;70.40;;;;;;4996703;28;20134;-73
2022/08/30 08:29:17;;;;;;;4.47;2.10;;;22.30;72.00;;;;;;4996684;28;20137;-74
2022/08/30 08:31:45;;;;;;;5.83;1.77;;;22.00;72.30;;;;;;4996488;28;20129;-72
2022/08/30 08:34:12;;;;;;;4.83;2.00;;;21.90;70.50;;;;;;4996581;28;20058;-73
2022/08/30 08:36:39;;;;;;;6.10;1.60;;;21.90;71.00;;;;;;4996369;28;20453;-73
2022/08/30 08:39:06;;;;;;;3.27;1.93;;;21.70;71.40;;;;;;4996480;28;20503;-74
2022/08/30 08:41:56;;;;;;;6.50;1.90;;;21.60;72.50;;;;;;4996345;28;20050;-74
2022/08/30 08:44:31;;;;;;;6.10;1.80;;;21.50;72.80;;;;;;4996362;28;20046;-74
2022/08/30 08:47:32;;;;;;;8.93;1.88;;;21.30;74.60;;;;;;4996114;28;20042;-71
2022/08/30 08:50:01;;;;;;;5.03;1.63;;;21.20;74.40;;;;;;4993172;28;20058;-76
2022/08/30 08:55:29;;;;;;;3.30;1.70;;;21.00;77.30;;;;;;4996161;28;20050;-78
2022/08/30 08:57:55;;;;;;;7.60;2.20;;;20.90;76.90;;;;;;4996177;28;20122;-81
2022/08/30 09:00:21;;;;;;;4.67;1.87;;;20.90;78.10;;;;;;4996646;28;20089;-77
2022/08/30 09:03:01;;;;;;;5.53;2.00;;;20.90;78.10;;;;;;4996730;28;20086;-76
2022/08/30 09:05:35;;;;;;;4.57;1.97;;;21.00;78.80;;;;;;4996286;28;20050;-84
2022/08/30 09:08:07;;;;;;;6.57;2.10;;;21.10;78.80;;;;;;4996557;28;20384;-79
2022/08/30 09:10:34;;;;;;;4.17;2.07;;;21.20;78.90;;;;;;4994967;28;20486;-74
2022/08/30 09:13:00;;;;;;;4.87;1.77;;;21.10;79.60;;;;;;4994620;28;20054;-74
2022/08/30 09:15:28;;;;;;;5.00;1.80;;;21.00;78.90;;;;;;4995619;28;20085;-76
2022/08/30 09:18:04;;;;;;;4.30;2.03;;;21.00;76.50;;;;;;4995961;28;20129;-80
2022/08/30 09:20:45;;;;;;;3.73;2.00;;;21.00;75.80;;;;;;4996725;28;20140;-74
2022/08/30 09:23:14;;;;;;;6.63;1.80;;;21.00;77.30;;;;;;4995731;28;20050;-79
2022/08/30 09:26:00;;;;;;;4.13;2.00;;;21.20;74.80;;;;;;4995653;28;20129;-75
2022/08/30 09:28:29;;;;;;;3.80;1.80;;;21.10;74.30;;;;;;4996758;28;20038;-86
2022/08/30 09:30:58;;;;;;;4.60;1.67;;;21.10;75.00;;;;;;4993425;28;20108;-75
2022/08/30 09:33:23;;;;;;;2.67;1.50;;;21.00;76.10;;;;;;4995456;28;20050;-75
2022/08/30 09:35:51;;;;;;;8.77;2.43;;;21.10;76.80;;;;;;4995858;28;20154;-75
2022/08/30 09:38:21;;;;;;;4.33;1.63;;;21.20;78.10;;;;;;4994917;28;20383;-75
2022/08/30 09:40:56;;;;;;;5.53;2.17;;;21.30;77.70;;;;;;4995301;28;20061;-74
2022/08/30 09:43:26;;;;;;;6.75;2.30;;;21.40;77.10;;;;;;4995311;28;20050;-75
2022/08/30 09:46:01;;;;;;;5.33;2.10;;;21.40;75.00;;;;;;4995350;28;20046;-75
2022/08/30 09:48:44;;;;;;;5.07;2.00;;;21.40;74.90;;;;;;4995233;28;20130;-75
2022/08/30 09:51:09;;;;;;;6.20;2.57;;;21.40;75.30;;;;;;4994862;28;20372;-75
2022/08/30 09:54:02;;;;;;;3.73;1.70;;;21.50;75.90;;;;;;4995104;28;20104;-75
2022/08/30 09:56:59;;;;;;;6.33;1.83;;;21.50;76.10;;;;;;4994984;28;20056;-75
2022/08/30 09:59:54;;;;;;;9.37;2.00;;;21.60;76.60;;;;;;4995186;28;20451;-75
2022/08/30 10:02:48;;;;;;;6.05;2.00;;;21.60;75.10;;;;;;4994752;28;20057;-75
2022/08/30 10:05:28;;;;;;;6.37;1.60;;;21.50;71.50;;;;;;4995174;28;20051;-75
2022/08/30 10:07:57;;;;;;;4.93;2.27;;;21.50;73.20;;;;;;4993839;28;20050;-75
2022/08/30 10:10:57;;;;;;;3.90;1.80;;;21.50;73.50;;;;;;4994717;28;20050;-75
2022/08/30 10:13:44;;;;;;;4.57;1.70;;;21.50;71.30;;;;;;4994711;28;20049;-75
2022/08/30 10:16:41;;;;;;;3.30;1.43;;;21.50;71.30;;;;;;4993540;28;20049;-75
2022/08/30 10:19:23;;;;;;;5.17;1.60;;;21.40;71.10;;;;;;4995439;28;20070;-75
2022/08/30 10:22:13;;;;;;;5.00;1.77;;;21.40;71.10;;;;;;4995115;28;20046;-75
2022/08/30 10:24:49;;;;;;;4.10;2.13;;;21.40;69.80;;;;;;4994552;28;20121;-75
2022/08/30 10:27:27;;;;;;;4.87;1.70;;;21.40;69.90;;;;;;4994605;28;20154;-75
2022/08/30 10:30:04;;;;;;;3.97;1.80;;;21.50;68.20;;;;;;4994966;28;20042;-75
2022/08/30 10:32:52;;;;;;;4.57;1.87;;;21.40;67.50;;;;;;4994443;28;20132;-75
2022/08/30 10:35:21;;;;;;;4.03;1.87;;;21.40;67.40;;;;;;4994941;28;20046;-75
2022/08/30 10:37:53;;;;;;;4.30;1.60;;;21.40;67.80;;;;;;4994728;28;20050;-75
2022/08/30 10:43:33;;;;;;;5.57;1.30;;;21.50;68.50;;;;;;4994518;28;20064;-75
2022/08/30 10:46:08;;;;;;;4.20;1.80;;;21.40;65.90;;;;;;4994791;28;20138;-75
2022/08/30 10:48:39;;;;;;;4.07;1.80;;;21.40;65.80;;;;;;4993299;28;20060;-75
2022/08/30 10:51:13;;;;;;;4.77;1.70;;;21.40;65.70;;;;;;4994747;28;20193;-75
2022/08/30 10:53:46;;;;;;;8.02;1.65;;;21.40;65.10;;;;;;4994222;28;20494;-75
2022/08/30 10:56:20;;;;;;;4.93;1.70;;;21.40;63.90;;;;;;4994933;28;20042;-75
2022/08/30 10:58:46;;;;;;;4.20;1.63;;;21.40;64.40;;;;;;4994015;28;20039;-75
2022/08/30 11:01:49;;;;;;;3.87;1.53;;;21.40;65.10;;;;;;4994329;28;20046;-75
2022/08/30 11:04:36;;;;;;;3.60;1.50;;;21.60;64.20;;;;;;4994056;28;20053;-75
2022/08/30 11:07:26;;;;;;;4.93;1.80;;;21.50;61.90;;;;;;4994023;28;20085;-75
2022/08/30 11:10:15;;;;;;;4.37;1.83;;;21.50;64.10;;;;;;4993803;28;20054;-74
2022/08/30 11:13:12;;;;;;;2.57;1.20;;;21.60;62.30;;;;;;4993948;28;20050;-74
2022/08/30 11:15:57;;;;;;;4.13;1.60;;;21.60;62.20;;;;;;4987796;28;20498;-75
2022/08/30 11:18:24;;;;;;;3.55;1.63;;;21.50;61.80;;;;;;4994219;28;20402;-75
2022/08/30 11:20:55;;;;;;;3.43;1.33;;;21.50;62.40;;;;;;4992665;28;20109;-76
2022/08/30 11:23:27;;;;;;;5.27;1.80;;;21.50;61.80;;;;;;4994199;28;20042;-73
2022/08/30 11:26:38;;;;;;;3.60;1.67;;;21.50;61.70;;;;;;4994377;28;20046;-74
2022/08/30 11:29:04;;;;;;;3.10;1.30;;;21.50;59.90;;;;;;4978496;28;20058;-74
2022/08/30 11:31:39;;;;;;;3.43;1.67;;;21.40;60.60;;;;;;4994024;28;20087;-73
2022/08/30 11:34:06;;;;;;;4.00;1.83;;;21.40;59.30;;;;;;4994068;28;20100;-74
2022/08/30 11:36:34;;;;;;;4.13;1.63;;;21.40;59.50;;;;;;4992554;28;20051;-73
2022/08/30 11:39:35;;;;;;;2.83;1.43;;;21.50;59.70;;;;;;4993741;28;20058;-74
2022/08/30 11:42:31;;;;;;;2.47;1.40;;;21.50;57.70;;;;;;4994397;28;20050;-73
2022/08/30 11:45:39;;;;;;;4.43;1.50;;;21.50;57.20;;;;;;4994062;28;20144;-73
2022/08/30 11:48:08;;;;;;;2.47;1.33;;;21.40;57.50;;;;;;4985617;28;20078;-73
2022/08/30 11:50:58;;;;;;;4.43;1.70;;;21.40;58.70;;;;;;4994146;28;20100;-73
2022/08/30 11:53:41;;;;;;;3.77;1.63;;;21.50;58.50;;;;;;4993889;28;20542;-73
2022/08/30 11:56:20;;;;;;;5.43;1.80;;;21.60;58.20;;;;;;4997347;28;20049;-73
2022/08/30 11:59:16;;;;;;;2.63;1.40;;;21.60;58.30;;;;;;4997292;28;20042;-79
2022/08/30 12:01:42;;;;;;;4.37;1.60;;;21.50;57.30;;;;;;4997970;28;20065;-81
2022/08/30 12:04:15;;;;;;;3.00;1.60;;;21.50;57.50;;;;;;4997206;28;20486;-82
2022/08/30 12:06:41;;;;;;;5.13;1.80;;;21.50;58.40;;;;;;4997947;28;20129;-77
2022/08/30 12:09:31;;;;;;;3.10;1.33;;;21.60;58.50;;;;;;4997856;28;20491;-76
2022/08/30 12:12:01;;;;;;;3.17;1.50;;;21.60;58.20;;;;;;4997455;28;20058;-76
2022/08/30 12:14:50;;;;;;;5.40;1.90;;;21.60;58.40;;;;;;4997221;28;20181;-76
2022/08/30 12:20:17;;;;;;;7.13;2.10;;;21.60;60.40;;;;;;4996552;28;20062;-76
2022/08/30 12:22:44;;;;;;;3.17;1.40;;;21.50;61.90;;;;;;4996521;28;20483;-75
2022/08/30 12:25:32;;;;;;;6.00;1.47;;;21.60;62.70;;;;;;4996697;28;20061;-75
2022/08/30 12:28:17;;;;;;;4.60;1.43;;;21.60;63.00;;;;;;4996746;28;20050;-75
2022/08/30 12:30:43;;;;;;;3.60;1.47;;;21.60;62.50;;;;;;4997226;28;20375;-75
2022/08/30 12:33:11;;;;;;;3.53;1.53;;;21.60;62.30;;;;;;4995652;28;20416;-75
2022/08/30 12:35:38;;;;;;;4.20;1.60;;;21.60;63.00;;;;;;4996607;28;20453;-75
2022/08/30 12:38:10;;;;;;;4.43;1.50;;;21.60;63.30;;;;;;4996539;28;20046;-75
2022/08/30 12:40:36;;;;;;;3.47;1.67;;;21.60;62.10;;;;;;4996552;28;20479;-75
2022/08/30 12:43:16;;;;;;;3.43;1.50;;;21.60;62.70;;;;;;4996457;28;20049;-75
2022/08/30 12:45:44;;;;;;;4.40;1.63;;;21.60;63.60;;;;;;4996453;28;20155;-75
2022/08/30 12:48:16;;;;;;;4.17;1.50;;;21.70;63.40;;;;;;4996312;28;20042;-75
2022/08/30 12:50:52;;;;;;;5.93;1.50;;;21.70;64.10;;;;;;4997217;28;20069;-75
2022/08/30 12:53:31;;;;;;;6.43;1.63;;;21.80;63.70;;;;;;4996852;28;20430;-75
2022/08/30 12:56:06;;;;;;;4.23;1.90;;;21.80;64.00;;;;;;4996259;28;20050;-76
2022/08/30 12:58:41;;;;;;;7.43;2.23;;;21.80;63.30;;;;;;4996168;28;20486;-75
2022/08/30 13:01:17;;;;;;;5.35;1.80;;;21.80;64.00;;;;;;4996141;28;20054;-75
2022/08/30 13:03:52;;;;;;;5.37;1.93;;;21.80;64.40;;;;;;4996109;28;20137;-75
2022/08/30 13:06:43;;;;;;;4.90;1.60;;;21.80;65.30;;;;;;4995074;28;20093;-75
2022/08/30 13:09:20;;;;;;;4.90;1.70;;;21.80;64.70;;;;;;4995721;28;20589;-75
2022/08/30 13:11:50;;;;;;;5.20;1.90;;;21.90;65.10;;;;;;4995802;28;20056;-76
2022/08/30 13:14:26;;;;;;;7.83;2.30;;;21.90;65.80;;;;;;4995881;28;20125;-76
2022/08/30 13:17:23;;;;;;;3.93;1.60;;;21.90;66.20;;;;;;4996533;28;20136;-75
2022/08/30 13:20:06;;;;;;;7.27;1.57;;;21.80;66.60;;;;;;4996688;28;20352;-78
2022/08/30 13:22:35;;;;;;;4.67;1.70;;;21.80;64.70;;;;;;4997222;28;20109;-81
2022/08/30 13:25:02;;;;;;;4.77;2.00;;;21.70;64.30;;;;;;4994756;28;20153;-82
2022/08/30 13:27:28;;;;;;;3.93;1.67;;;21.70;65.70;;;;;;4995423;28;20125;-82
2022/08/30 13:29:55;;;;;;;4.17;1.70;;;21.70;65.10;;;;;;4995524;28;20163;-76